Time;durP1;ratioP1;P1;durP2;ratioP2;P2;SDS_P1;SDS_P2;PMS_P1;PMS_P2;Temp;Humidity;BMP_temperature;BMP_pressure;BME280_temperature;BME280_humidity;BME280_pressure;Samples;Min_cycle;Max_cycle;Signal;HPM_P1;HPM_P2
2022/08/12 00:43:14;;;;;;;;;;;;;;;11.12;100.00;93299.69;2123561;27;20368;-69
2022/08/12 00:44:15;;;;;;;;;;;;;;;11.21;99.53;93295.28;2122734;27;19999;-71
2022/08/12 00:45:16;;;;;;;;;;;;;;;11.24;99.43;93291.03;2122772;27;19934;-69
2022/08/12 00:46:35;;;;;;;;;;;;;;;11.20;100.00;93293.03;2123521;27;19970;-69
2022/08/12 00:47:36;;;;;;;;;;;;;;;11.34;99.66;93290.81;2121596;27;19915;-70
2022/08/12 00:48:38;;;;;;;;;;;;;;;11.28;99.86;93286.34;2122932;27;20006;-69
2022/08/12 00:49:40;;;;;;;;;;;;;;;11.06;100.00;93288.72;2123324;27;20007;-69
2022/08/12 00:50:41;;;;;;;;;;;;;;;11.14;100.00;93298.09;2123530;27;19911;-69
2022/08/12 00:53:02;;;;;;;;;;;;;;;11.22;100.00;93288.75;2117274;27;19937;-68
2022/08/12 00:54:03;;;;;;;;;;;;;;;11.18;100.00;93298.03;2123448;27;19960;-70
2022/08/12 00:55:04;;;;;;;;;;;;;;;11.01;100.00;93289.22;2123257;27;20381;-71
2022/08/12 00:56:06;;;;;;;;;;;;;;;11.14;100.00;93292.75;2123538;27;19915;-69
2022/08/12 00:57:12;;;;;;;;;;;;;;;11.06;100.00;93289.50;2122881;27;19923;-69
2022/08/12 00:58:15;;;;;;;;;;;;;;;10.95;100.00;93286.28;2122363;27;20385;-71
2022/08/12 00:59:16;;;;;;;;;;;;;;;11.06;100.00;93286.81;2123404;27;20478;-68
2022/08/12 01:00:20;;;;;;;;;;;;;;;11.05;100.00;93290.63;2123171;27;19915;-69
2022/08/12 01:01:21;;;;;;;;;;;;;;;10.98;100.00;93288.13;2119614;27;20394;-69
2022/08/12 01:02:27;;;;;;;;;;;;;;;11.00;100.00;93285.78;2123377;27;19971;-70
2022/08/12 01:11:27;;;;;;;;;;;;;;;10.91;100.00;93282.16;2119173;27;20674;-69
2022/08/12 01:11:36;;;;;;;;;;;;;;;10.80;100.00;93285.06;2121625;27;20017;-69
2022/08/12 01:12:37;;;;;;;;;;;;;;;10.92;100.00;93281.75;2122776;27;19915;-69
2022/08/12 01:13:39;;;;;;;;;;;;;;;10.90;100.00;93286.75;2122560;27;20406;-69
2022/08/12 01:14:41;;;;;;;;;;;;;;;10.90;100.00;93286.00;2121904;27;20440;-69
2022/08/12 01:15:43;;;;;;;;;;;;;;;10.82;100.00;93288.06;2123165;27;19918;-69
2022/08/12 01:16:45;;;;;;;;;;;;;;;10.83;100.00;93286.91;2123242;27;19922;-69
2022/08/12 01:17:46;;;;;;;;;;;;;;;10.80;100.00;93282.41;2123130;27;20299;-70
2022/08/12 01:18:48;;;;;;;;;;;;;;;10.77;100.00;93283.22;2123234;27;20277;-69
2022/08/12 01:19:51;;;;;;;;;;;;;;;10.57;100.00;93285.88;2118239;27;19953;-72
2022/08/12 01:20:51;;;;;;;;;;;;;;;10.58;100.00;93279.38;2123095;27;20428;-70
2022/08/12 01:21:54;;;;;;;;;;;;;;;10.66;100.00;93279.97;2123258;27;19961;-69
2022/08/12 01:22:58;;;;;;;;;;;;;;;10.65;100.00;93281.91;2123320;27;19998;-70
2022/08/12 01:24:16;;;;;;;;;;;;;;;10.54;100.00;93279.44;2122600;27;20337;-69
2022/08/12 01:25:20;;;;;;;;;;;;;;;10.72;100.00;93289.03;2121793;27;20708;-69
2022/08/12 01:26:22;;;;;;;;;;;;;;;10.70;100.00;93281.41;2119141;27;19916;-68
2022/08/12 01:27:24;;;;;;;;;;;;;;;10.55;100.00;93294.31;2123149;27;19915;-68
2022/08/12 01:28:26;;;;;;;;;;;;;;;10.63;100.00;93291.50;2123239;27;19922;-69
2022/08/12 01:29:28;;;;;;;;;;;;;;;10.58;100.00;93290.06;2123276;27;20337;-68
2022/08/12 01:30:32;;;;;;;;;;;;;;;10.67;100.00;93292.16;2122308;27;20410;-68
2022/08/12 01:31:35;;;;;;;;;;;;;;;10.62;100.00;93287.31;2123026;27;19911;-72
2022/08/12 01:32:38;;;;;;;;;;;;;;;10.49;100.00;93290.63;2123147;27;20656;-69
2022/08/12 01:33:42;;;;;;;;;;;;;;;10.57;100.00;93294.63;2123143;27;19974;-68
2022/08/12 01:35:04;;;;;;;;;;;;;;;10.56;100.00;93293.13;2123074;27;19922;-68
2022/08/12 01:36:08;;;;;;;;;;;;;;;10.66;100.00;93296.78;2121197;27;20355;-70
2022/08/12 01:37:10;;;;;;;;;;;;;;;10.65;100.00;93286.50;2123061;27;20452;-69
2022/08/12 01:38:12;;;;;;;;;;;;;;;10.62;100.00;93296.06;2123129;27;19922;-69
2022/08/12 01:39:14;;;;;;;;;;;;;;;10.59;100.00;93296.91;2123063;27;19987;-69
2022/08/12 01:40:18;;;;;;;;;;;;;;;10.62;100.00;93292.66;2122329;27;19994;-69
2022/08/12 01:41:20;;;;;;;;;;;;;;;10.58;100.00;93288.16;2122350;27;19922;-69
2022/08/12 01:42:21;;;;;;;;;;;;;;;10.62;100.00;93288.06;2122475;27;19922;-69
2022/08/12 01:43:23;;;;;;;;;;;;;;;10.52;100.00;93283.69;2123082;27;20380;-68
2022/08/12 01:44:26;;;;;;;;;;;;;;;10.54;100.00;93294.72;2122477;27;19915;-69
2022/08/12 01:45:28;;;;;;;;;;;;;;;10.54;100.00;93284.78;2121498;27;20036;-71
2022/08/12 01:46:29;;;;;;;;;;;;;;;10.52;100.00;93287.09;2122865;27;19998;-68
2022/08/12 01:47:30;;;;;;;;;;;;;;;10.57;100.00;93278.59;2123057;27;19915;-68
2022/08/12 01:48:44;;;;;;;;;;;;;;;10.53;100.00;93283.25;2123119;27;20365;-68
2022/08/12 01:49:47;;;;;;;;;;;;;;;10.52;100.00;93284.44;2123053;27;19915;-68
2022/08/12 01:51:01;;;;;;;;;;;;;;;10.53;100.00;93283.25;2122968;27;19911;-71
2022/08/12 01:52:04;;;;;;;;;;;;;;;10.40;100.00;93279.69;2122005;27;19972;-69
2022/08/12 01:53:09;;;;;;;;;;;;;;;10.41;100.00;93283.88;2122965;27;19958;-69
2022/08/12 01:54:14;;;;;;;;;;;;;;;10.37;100.00;93285.13;2122952;27;19968;-69
2022/08/12 01:55:18;;;;;;;;;;;;;;;10.45;100.00;93287.25;2123010;27;19942;-71
2022/08/12 01:56:21;;;;;;;;;;;;;;;10.34;100.00;93282.09;2117998;27;19911;-69
2022/08/12 01:57:25;;;;;;;;;;;;;;;10.39;100.00;93283.53;2122141;27;19915;-69
2022/08/12 01:58:25;;;;;;;;;;;;;;;10.27;100.00;93278.78;2122364;27;20325;-69
2022/08/12 01:59:45;;;;;;;;;;;;;;;10.29;100.00;93274.56;2122392;27;19957;-70
2022/08/12 02:00:54;;;;;;;;;;;;;;;10.18;100.00;93281.22;2122503;27;19911;-68
2022/08/12 02:01:55;;;;;;;;;;;;;;;10.30;100.00;93269.97;2117157;27;20321;-70
2022/08/12 02:03:03;;;;;;;;;;;;;;;10.35;100.00;93272.16;2123048;27;19923;-68
2022/08/12 02:11:17;;;;;;;;;;;;;;;10.29;100.00;93265.78;2122891;27;19911;-68
2022/08/12 02:12:28;;;;;;;;;;;;;;;10.29;100.00;93263.88;2118833;27;20387;-71
2022/08/12 02:15:00;;;;;;;;;;;;;;;10.22;100.00;93263.19;2146823;27;20530;-70
2022/08/12 02:16:21;;;;;;;4.78;3.22;;;;;;;10.01;100.00;93273.13;2138310;27;19915;-70
2022/08/12 02:17:43;;;;;;;3.40;3.10;;;;;;;9.97;100.00;93274.34;2134088;27;20723;-70
2022/08/12 02:19:04;;;;;;;3.72;3.42;;;;;;;10.06;100.00;93264.63;2137655;27;20353;-70
2022/08/12 02:20:20;;;;;;;4.35;3.75;;;;;;;10.16;100.00;93267.53;2138050;27;20138;-70
2022/08/12 02:21:45;;;;;;;4.38;3.20;;;;;;;10.07;100.00;93263.47;2134077;27;20042;-69
2022/08/12 02:22:47;;;;;;;3.55;3.25;;;;;;;9.97;100.00;93269.75;2137974;27;20095;-70
2022/08/12 02:23:48;;;;;;;5.88;3.22;;;;;;;10.02;100.00;93258.59;2137304;27;20026;-70
2022/08/12 02:24:52;;;;;;;4.40;3.40;;;;;;;9.90;100.00;93259.19;2133823;27;20475;-72
2022/08/12 02:26:07;;;;;;;6.43;3.42;;;;;;;9.93;100.00;93268.31;2138086;27;20444;-70
2022/08/12 02:27:09;;;;;;;3.88;3.50;;;;;;;9.97;100.00;93261.75;2138100;27;20022;-72
2022/08/12 02:28:10;;;;;;;5.60;3.03;;;;;;;9.87;100.00;93259.22;2137853;27;20058;-69
2022/08/12 02:29:12;;;;;;;4.22;3.20;;;;;;;9.84;100.00;93268.81;2137260;27;20097;-73
2022/08/12 02:30:18;;;;;;;4.78;3.63;;;;;;;9.87;100.00;93265.31;2137985;27;20044;-70
2022/08/12 02:31:19;;;;;;;4.05;3.70;;;;;;;9.83;100.00;93254.72;2128702;27;20015;-70
2022/08/12 02:32:20;;;;;;;3.80;3.45;;;;;;;9.96;100.00;93262.13;2128920;27;20030;-70
2022/08/12 02:33:21;;;;;;;3.92;3.45;;;;;;;9.94;100.00;93259.13;2137818;27;20030;-70
2022/08/12 02:34:23;;;;;;;3.40;3.08;;;;;;;9.91;100.00;93255.34;2137331;27;20022;-69
2022/08/12 02:35:27;;;;;;;4.43;3.70;;;;;;;9.99;100.00;93254.06;2137908;27;20082;-71
2022/08/12 02:36:29;;;;;;;3.50;3.20;;;;;;;9.90;100.00;93258.44;2138212;27;20097;-70
2022/08/12 02:37:35;;;;;;;6.53;3.70;;;;;;;9.82;100.00;93252.44;2138096;27;20022;-70
2022/08/12 02:38:39;;;;;;;4.05;3.65;;;;;;;9.89;100.00;93257.69;2138004;27;20027;-70
2022/08/12 02:39:47;;;;;;;4.18;3.45;;;;;;;9.84;100.00;93256.22;2137294;27;20419;-70
2022/08/12 02:40:53;;;;;;;3.80;3.50;;;;;;;9.90;100.00;93258.44;2138076;27;20092;-69
2022/08/12 02:41:57;;;;;;;4.68;3.50;;;;;;;10.02;100.00;93252.50;2134285;27;20034;-71
2022/08/12 02:43:05;;;;;;;6.35;3.53;;;;;;;9.94;100.00;93251.88;2137717;27;20026;-71
2022/08/12 02:44:09;;;;;;;5.32;3.58;;;;;;;9.83;100.00;93254.72;2137944;27;20022;-72
2022/08/12 02:45:13;;;;;;;5.40;3.85;;;;;;;9.84;100.00;93256.22;2137133;27;20030;-71
2022/08/12 02:46:19;;;;;;;6.03;3.53;;;;;;;9.96;100.00;93254.13;2128706;27;20034;-72
2022/08/12 02:47:22;;;;;;;4.72;3.67;;;;;;;9.89;100.00;93249.66;2125550;27;20039;-70
2022/08/12 02:48:43;;;;;;;4.90;3.72;;;;;;;9.95;100.00;93240.00;2137772;27;20023;-70
2022/08/12 02:49:51;;;;;;;3.70;3.40;;;;;;;9.86;100.00;93241.72;2137808;27;20040;-70
2022/08/12 02:50:55;;;;;;;3.70;3.40;;;;;;;9.84;100.00;93252.81;2134045;27;20028;-73
2022/08/12 02:51:58;;;;;;;4.43;3.97;;;;;;;9.85;100.00;93246.31;2138036;27;20054;-70
2022/08/12 02:53:01;;;;;;;4.68;3.47;;;;;;;9.71;100.00;93247.28;2137914;27;20034;-70
2022/08/12 02:54:04;;;;;;;4.13;3.75;;;;;;;9.74;100.00;93246.47;2138226;27;20452;-71
2022/08/12 02:55:17;;;;;;;3.97;3.65;;;;;;;9.72;100.00;93243.47;2138103;27;20034;-71
2022/08/12 02:56:19;;;;;;;3.78;3.47;;;;;;;9.76;100.00;93238.06;2128412;27;20065;-70
2022/08/12 02:57:22;;;;;;;3.83;3.53;;;;;;;9.66;100.00;93244.31;2116233;27;20059;-70
2022/08/12 02:58:25;;;;;;;5.03;3.13;;;;;;;9.83;100.00;93245.94;2128997;27;20532;-70
2022/08/12 02:59:28;;;;;;;3.95;3.53;;;;;;;9.74;100.00;93245.72;2137797;27;20046;-70
2022/08/12 03:00:30;;;;;;;4.32;3.90;;;;;;;9.77;100.00;93243.00;2136959;27;20528;-69
2022/08/12 03:01:33;;;;;;;5.70;3.83;;;;;;;9.63;100.00;93243.22;2137769;27;20022;-68
2022/08/12 03:02:37;;;;;;;3.90;3.53;;;;;;;9.69;100.00;93240.84;2137855;27;20018;-70
2022/08/12 03:03:40;;;;;;;3.38;3.08;;;;;;;9.70;100.00;93237.78;2137619;27;20046;-71
2022/08/12 03:04:55;;;;;;;3.50;3.20;;;;;;;9.72;100.00;93232.78;2137864;27;20022;-71
2022/08/12 03:06:17;;;;;;;6.72;4.10;;;;;;;9.79;100.00;93239.94;2133781;27;20034;-73
2022/08/12 03:07:34;;;;;;;4.07;3.50;;;;;;;9.84;100.00;93234.13;2137731;27;20059;-70
2022/08/12 03:08:42;;;;;;;4.30;3.90;;;;;;;9.64;100.00;93241.31;2135721;27;20117;-70
2022/08/12 03:09:50;;;;;;;4.50;3.85;;;;;;;9.59;100.00;93240.63;2137693;27;20034;-70
2022/08/12 03:10:54;;;;;;;6.68;3.45;;;;;;;9.72;100.00;93240.78;2123976;27;20496;-70
2022/08/12 03:12:03;;;;;;;4.45;3.75;;;;;;;9.53;100.00;93242.25;2125586;27;20506;-70
2022/08/12 03:13:06;;;;;;;4.28;3.75;;;;;;;9.57;100.00;93240.28;2137761;27;20058;-71
2022/08/12 03:14:12;;;;;;;4.78;4.13;;;;;;;9.59;100.00;93234.53;2137061;27;20043;-70
2022/08/12 03:15:16;;;;;;;3.97;3.67;;;;;;;9.69;100.00;93232.84;2137684;27;20087;-72
2022/08/12 03:16:22;;;;;;;6.82;4.28;;;;;;;9.67;100.00;93243.19;2137141;27;20097;-72
2022/08/12 03:17:42;;;;;;;4.22;3.92;;;;;;;9.54;100.00;93240.31;2133915;27;20623;-70
2022/08/12 03:18:44;;;;;;;4.90;4.18;;;;;;;9.86;100.00;93234.44;2137729;27;20425;-70
2022/08/12 03:19:45;;;;;;;4.30;3.92;;;;;;;9.76;100.00;93238.06;2137452;27;20031;-70
2022/08/12 03:20:46;;;;;;;4.10;3.67;;;;;;;9.69;100.00;93235.50;2137602;27;20031;-71
2022/08/12 03:21:50;;;;;;;4.28;3.75;;;;;;;9.81;100.00;93234.94;2136983;27;20022;-71
2022/08/12 03:22:51;;;;;;;5.07;4.20;;;;;;;9.84;100.00;93242.88;2133659;27;20018;-70
2022/08/12 03:23:54;;;;;;;5.13;3.88;;;;;;;9.67;100.00;93243.94;2137605;27;20105;-72
2022/08/12 03:24:57;;;;;;;4.90;3.75;;;;;;;9.76;100.00;93238.81;2137469;27;20070;-70
2022/08/12 03:26:00;;;;;;;6.03;3.83;;;;;;;9.72;100.00;93240.03;2132666;27;20073;-70
2022/08/12 03:27:04;;;;;;;3.80;3.50;;;;;;;9.69;100.00;93246.94;2131170;27;20055;-69
2022/08/12 03:28:08;;;;;;;4.50;3.60;;;;;;;9.66;100.00;93245.09;2131835;27;20751;-71
2022/08/12 03:29:11;;;;;;;5.85;4.20;;;;;;;9.70;100.00;93242.34;2131861;27;20086;-70
2022/08/12 03:30:12;;;;;;;4.88;4.20;;;;;;;9.70;100.00;93237.00;2131658;27;20394;-69
2022/08/12 03:31:13;;;;;;;4.57;4.10;;;;;;;9.74;100.00;93243.03;2131828;27;20170;-70
2022/08/12 03:32:14;;;;;;;6.38;3.90;;;;;;;9.66;100.00;93234.41;2122059;27;20065;-72
2022/08/12 03:33:18;;;;;;;4.15;3.83;;;;;;;9.69;100.00;93243.50;2122787;27;20023;-70
2022/08/12 03:34:25;;;;;;;4.70;4.30;;;;;;;9.75;100.00;93237.31;2127551;27;20033;-71
2022/08/12 03:35:34;;;;;;;6.07;4.20;;;;;;;9.67;100.00;93243.19;2131691;27;20453;-70
2022/08/12 03:36:37;;;;;;;5.80;4.40;;;;;;;9.61;100.00;93242.13;2131842;27;20031;-70
2022/08/12 03:37:40;;;;;;;3.90;3.60;;;;;;;9.54;100.00;93240.31;2128506;27;20385;-70
2022/08/12 03:38:43;;;;;;;4.90;4.18;;;;;;;9.57;100.00;93242.19;2130694;27;20026;-70
2022/08/12 03:39:44;;;;;;;5.60;4.05;;;;;;;9.45;100.00;93243.50;2131788;27;20030;-70
2022/08/12 03:42:34;;;;;;;4.53;4.10;;;;;;;9.55;100.00;93244.50;2131548;27;20453;-70
2022/08/12 04:00:23;;;;;;;7.82;4.53;;;;;;;9.35;100.00;93241.78;2129899;27;20035;-70
2022/08/12 04:01:25;;;;;;;4.88;4.18;;;;;;;9.31;100.00;93241.81;2127984;27;20023;-70
2022/08/12 04:02:27;;;;;;;5.20;4.45;;;;;;;9.25;100.00;93245.34;2131506;27;20075;-72
2022/08/12 04:04:49;;;;;;;5.55;4.50;;;;;;;9.07;100.00;93240.25;2131613;27;20368;-70
2022/08/12 04:05:50;;;;;;;5.57;4.35;;;;;;;9.14;100.00;93250.81;2127335;27;20037;-70
2022/08/12 04:06:51;;;;;;;4.95;4.40;;;;;;;9.11;100.00;93245.53;2131577;27;20018;-70
2022/08/12 04:07:52;;;;;;;4.38;3.97;;;;;;;9.15;100.00;93246.25;2131612;27;20034;-71
2022/08/12 04:08:58;;;;;;;4.63;4.15;;;;;;;9.14;100.00;93248.16;2131080;27;20030;-69
2022/08/12 04:10:00;;;;;;;5.07;4.57;;;;;;;9.13;100.00;93243.22;2131428;27;20040;-70
2022/08/12 04:13:47;;;;;;;6.13;3.97;;;;;;;9.05;100.00;93251.31;2130691;27;20359;-72
2022/08/12 04:14:50;;;;;;;5.18;4.60;;;;;;;9.15;100.00;93248.91;2131070;27;20035;-70
2022/08/12 04:15:51;;;;;;;5.47;4.22;;;;;;;9.16;100.00;93251.16;2127457;27;20030;-70
2022/08/12 04:16:52;;;;;;;6.25;4.60;;;;;;;9.15;100.00;93252.34;2131463;27;20019;-70
2022/08/12 04:17:54;;;;;;;6.03;4.70;;;;;;;9.06;100.00;93247.50;2131477;27;20031;-71
2022/08/12 04:18:55;;;;;;;5.85;4.75;;;;;;;9.02;100.00;93244.13;2131011;27;20023;-70
2022/08/12 04:19:57;;;;;;;6.15;5.00;;;;;;;9.09;100.00;93243.28;2131346;27;20337;-70
2022/08/12 04:21:01;;;;;;;9.85;4.97;;;;;;;8.99;100.00;93247.59;2131367;27;20022;-70
2022/08/12 04:22:02;;;;;;;5.57;4.60;;;;;;;9.03;100.00;93247.53;2131345;27;20032;-70
2022/08/12 04:23:04;;;;;;;5.18;4.78;;;;;;;9.10;100.00;93250.13;2122160;27;20038;-73
2022/08/12 04:24:05;;;;;;;6.63;5.00;;;;;;;9.03;100.00;93242.22;2122442;27;20453;-71
2022/08/12 04:25:09;;;;;;;8.25;5.15;;;;;;;9.03;100.00;93242.97;2130554;27;20019;-73
2022/08/12 04:26:10;;;;;;;6.93;4.80;;;;;;;9.06;100.00;93244.84;2131342;27;20030;-71
2022/08/12 04:27:11;;;;;;;6.35;5.05;;;;;;;9.04;100.00;93243.72;2131329;27;20018;-72
2022/08/12 04:28:12;;;;;;;8.13;4.70;;;;;;;9.02;100.00;93246.78;2131400;27;20504;-69
2022/08/12 04:29:13;;;;;;;8.05;4.50;;;;;;;9.01;100.00;93241.88;2131269;27;20033;-69
2022/08/12 04:30:14;;;;;;;4.80;4.32;;;;;;;9.02;100.00;93240.72;2130861;27;20564;-70
2022/08/12 04:31:15;;;;;;;6.63;5.03;;;;;;;8.91;100.00;93242.75;2131371;27;20027;-70
2022/08/12 04:32:16;;;;;;;5.57;5.07;;;;;;;8.96;100.00;93242.31;2131309;27;20520;-71
2022/08/12 04:33:18;;;;;;;5.10;4.65;;;;;;;8.87;100.00;93236.72;2131291;27;20019;-70
2022/08/12 04:34:19;;;;;;;5.03;4.50;;;;;;;8.97;100.00;93241.16;2126981;27;20030;-70
2022/08/12 04:35:20;;;;;;;5.57;4.20;;;;;;;8.95;100.00;93236.22;2121719;27;20031;-69
2022/08/12 04:36:21;;;;;;;5.32;4.80;;;;;;;8.85;100.00;93239.03;2122523;27;20500;-70
2022/08/12 04:37:22;;;;;;;6.68;4.82;;;;;;;8.95;100.00;93243.47;2130990;27;20014;-70
2022/08/12 04:38:24;;;;;;;6.13;5.40;;;;;;;9.03;100.00;93231.53;2130975;27;20027;-70
2022/08/12 04:39:26;;;;;;;5.80;5.18;;;;;;;9.01;100.00;93228.53;2131443;27;20114;-72
2022/08/12 04:40:31;;;;;;;7.60;5.13;;;;;;;8.99;100.00;93231.59;2130512;27;20710;-70
2022/08/12 04:41:36;;;;;;;7.28;5.25;;;;;;;9.00;100.00;93238.47;2121993;27;20027;-70
2022/08/12 04:42:37;;;;;;;5.47;4.93;;;;;;;8.88;100.00;93230.25;2122013;27;20092;-70
2022/08/12 04:43:37;;;;;;;5.78;5.15;;;;;;;8.97;100.00;93233.16;2131255;27;20113;-70
2022/08/12 04:44:39;;;;;;;5.88;4.80;;;;;;;9.06;100.00;93233.41;2131190;27;20030;-69
2022/08/12 04:45:39;;;;;;;5.20;4.72;;;;;;;8.93;100.00;93232.47;2130409;27;20440;-71
2022/08/12 04:46:42;;;;;;;5.88;4.97;;;;;;;8.96;100.00;93237.00;2131207;27;20042;-70
2022/08/12 04:47:43;;;;;;;7.93;5.20;;;;;;;9.00;100.00;93227.00;2131085;27;20148;-71
2022/08/12 04:48:45;;;;;;;6.30;5.68;;;;;;;9.03;100.00;93234.97;2131224;27;20097;-70
2022/08/12 04:49:49;;;;;;;8.27;5.35;;;;;;;9.11;100.00;93235.63;2131265;27;20033;-70
2022/08/12 04:50:50;;;;;;;6.13;5.20;;;;;;;9.13;100.00;93235.22;2117407;27;20027;-70
2022/08/12 04:51:51;;;;;;;5.32;4.82;;;;;;;9.10;100.00;93238.72;2122142;27;20034;-71
2022/08/12 04:52:52;;;;;;;9.48;5.13;;;;;;;9.18;100.00;93242.78;2121845;27;20038;-69
2022/08/12 04:53:53;;;;;;;5.65;5.15;;;;;;;9.18;100.00;93240.13;2121827;27;20023;-69
2022/08/12 04:54:54;;;;;;;6.32;4.68;;;;;;;9.18;100.00;93234.78;2131069;27;20027;-71
2022/08/12 04:55:55;;;;;;;6.72;5.05;;;;;;;9.18;100.00;93251.53;2131128;27;20156;-72
2022/08/12 04:56:57;;;;;;;5.28;4.78;;;;;;;9.25;100.00;93240.00;2130502;27;20368;-70
2022/08/12 04:57:59;;;;;;;5.50;4.78;;;;;;;9.18;100.00;93240.13;2130960;27;20034;-71
2022/08/12 04:59:00;;;;;;;5.70;5.20;;;;;;;9.28;100.00;93239.19;2130618;27;20022;-70
2022/08/12 05:00:06;;;;;;;6.10;5.20;;;;;;;9.33;100.00;93239.50;2129420;27;20034;-70
2022/08/12 05:01:09;;;;;;;7.88;5.68;;;;;;;9.48;100.00;93245.38;2129347;27;20829;-70
2022/08/12 05:02:09;;;;;;;11.10;5.20;;;;;;;9.43;100.00;93227.13;2130201;27;20038;-73
2022/08/12 05:03:10;;;;;;;7.00;5.25;;;;;;;9.40;100.00;93235.22;2130964;27;20461;-71
2022/08/12 05:04:11;;;;;;;8.13;5.32;;;;;;;9.51;100.00;93233.88;2127838;27;20037;-69
2022/08/12 05:05:19;;;;;;;7.00;5.97;;;;;;;9.63;100.00;93237.13;2130092;27;20023;-70
2022/08/12 05:06:20;;;;;;;6.50;5.55;;;;;;;9.56;100.00;93228.06;2127748;27;20035;-69
2022/08/12 05:07:22;;;;;;;6.93;5.65;;;;;;;9.65;100.00;93232.88;2130283;27;20026;-73
2022/08/12 05:08:25;;;;;;;6.75;6.05;;;;;;;9.72;100.00;93232.03;2131107;27;20019;-70
2022/08/12 05:09:26;;;;;;;10.05;5.60;;;;;;;9.84;100.00;93229.53;2131044;27;20019;-70
2022/08/12 05:10:27;;;;;;;6.40;5.80;;;;;;;9.77;100.00;93226.97;2130977;27;20023;-70
2022/08/12 05:11:28;;;;;;;8.68;6.00;;;;;;;9.79;100.00;93226.59;2130814;27;20026;-69
2022/08/12 05:12:38;;;;;;;7.22;5.47;;;;;;;9.81;100.00;93221.56;2130216;27;20075;-70
2022/08/12 05:13:40;;;;;;;12.77;6.10;;;;;;;9.83;100.00;93229.91;2130996;27;20035;-71
2022/08/12 05:14:41;;;;;;;6.40;5.80;;;;;;;9.87;100.00;93227.94;2130581;27;20096;-70
2022/08/12 05:15:46;;;;;;;9.27;5.53;;;;;;;9.91;100.00;93227.88;2130959;27;20070;-73
2022/08/12 05:16:48;;;;;;;6.32;5.65;;;;;;;9.95;100.00;93228.59;2130970;27;20554;-70
2022/08/12 05:17:49;;;;;;;8.27;5.93;;;;;;;9.95;100.00;93224.00;2130355;27;20030;-70
2022/08/12 05:18:49;;;;;;;6.80;5.80;;;;;;;10.02;100.00;93226.56;2126447;27;20058;-70
2022/08/12 05:19:50;;;;;;;7.72;5.75;;;;;;;10.05;100.00;93236.44;2130884;27;20088;-71
2022/08/12 05:20:51;;;;;;;8.10;5.80;;;;;;;10.08;100.00;93229.50;2130812;27;20026;-70
2022/08/12 05:21:52;;;;;;;12.15;6.00;;;;;;;10.11;100.00;93235.94;2130920;27;20018;-71
2022/08/12 05:23:07;;;;;;;8.80;6.00;;;;;;;10.17;100.00;93234.31;2130166;27;20083;-70
2022/08/12 05:24:08;;;;;;;7.85;6.05;;;;;;;10.14;100.00;93235.09;2130984;27;20062;-72
2022/08/12 05:25:10;;;;;;;8.20;6.20;;;;;;;10.17;100.00;93240.38;2130831;27;20057;-70
2022/08/12 05:26:12;;;;;;;11.23;5.90;;;;;;;10.23;100.00;93238.03;2130909;27;20080;-73
2022/08/12 05:27:13;;;;;;;8.98;5.80;;;;;;;10.25;100.00;93244.47;2130901;27;20034;-70
2022/08/12 05:28:15;;;;;;;11.85;6.03;;;;;;;10.26;100.00;93245.97;2129956;27;20133;-70
2022/08/12 05:29:16;;;;;;;8.82;6.25;;;;;;;10.28;100.00;93245.59;2130837;27;20049;-72
2022/08/12 05:30:18;;;;;;;12.90;6.05;;;;;;;10.32;100.00;93241.69;2130772;27;20075;-70
2022/08/12 05:31:20;;;;;;;5.50;4.97;;;;;;;10.39;100.00;93254.13;2126529;27;20452;-70
2022/08/12 05:32:24;;;;;;;16.70;5.55;;;;;;;10.47;100.00;93247.50;2130954;27;20433;-70
2022/08/12 05:33:32;;;;;;;13.50;6.15;;;;;;;10.47;100.00;93252.09;2130650;27;20037;-70
2022/08/12 05:34:33;;;;;;;9.70;5.93;;;;;;;10.53;100.00;93250.44;2127401;27;20435;-71
2022/08/12 05:35:41;;;;;;;15.70;6.00;;;;;;;10.55;100.00;93254.22;2130642;27;20117;-70
2022/08/12 05:36:43;;;;;;;10.07;6.18;;;;;;;10.57;100.00;93254.53;2130730;27;20435;-70
2022/08/12 05:37:44;;;;;;;7.13;6.22;;;;;;;10.66;100.00;93245.22;2130777;27;20029;-71
2022/08/12 05:38:57;;;;;;;9.93;6.45;;;;;;;10.74;100.00;93249.25;2130704;27;20468;-70
2022/08/12 05:39:58;;;;;;;6.78;6.05;;;;;;;10.83;100.00;93252.13;2127142;27;20026;-70
2022/08/12 05:41:01;;;;;;;8.63;6.47;;;;;;;10.92;100.00;93251.56;2130884;27;20409;-70
2022/08/12 05:42:03;;;;;;;12.25;6.55;;;;;;;10.95;100.00;93248.84;2130798;27;20448;-71
2022/08/12 05:43:05;;;;;;;9.35;5.88;;;;;;;10.93;100.00;93245.06;2130736;27;20094;-72
2022/08/12 05:44:09;;;;;;;17.00;9.90;;;;;;;10.99;100.00;93251.44;2130756;27;20452;-70
2022/08/12 05:45:10;;;;;;;14.98;9.40;;;;;;;11.05;100.00;93247.09;2130059;27;20402;-70
2022/08/12 05:46:11;;;;;;;35.92;20.35;;;;;;;11.08;100.00;93249.69;2130767;27;20031;-71
2022/08/12 05:47:13;;;;;;;19.15;12.32;;;;;;;11.17;100.00;93243.03;2128431;27;20027;-71
2022/08/12 05:48:14;;;;;;;19.55;11.48;;;;;;;11.20;100.00;93239.53;2128632;27;20030;-72
2022/08/12 05:49:15;;;;;;;13.07;6.57;;;;;;;11.30;100.00;93241.22;2130513;27;20031;-72
2022/08/12 05:50:16;;;;;;;8.55;6.15;;;;;;;11.37;100.00;93235.69;2129950;27;20444;-71
2022/08/12 05:51:17;;;;;;;8.45;6.53;;;;;;;11.50;100.00;93233.88;2130656;27;20025;-70
2022/08/12 05:52:18;;;;;;;5.90;5.40;;;;;;;11.52;100.00;93234.19;2130737;27;20041;-70
2022/08/12 05:53:19;;;;;;;9.35;6.45;;;;;;;11.53;100.00;93237.63;2126511;27;20026;-72
2022/08/12 05:54:20;;;;;;;6.40;5.80;;;;;;;11.58;100.00;93242.47;2130654;27;20041;-73
2022/08/12 05:55:21;;;;;;;7.63;5.97;;;;;;;11.63;100.00;93241.97;2129836;27;20059;-71
2022/08/12 05:56:28;;;;;;;10.50;6.85;;;;;;;11.68;100.00;93238.81;2130695;27;20019;-71
2022/08/12 05:57:29;;;;;;;9.35;7.15;;;;;;;11.77;100.00;93240.88;2130759;27;20026;-71
2022/08/12 05:58:31;;;;;;;9.48;7.85;;;;;;;11.84;100.00;93246.09;2130614;27;20037;-72
2022/08/12 05:59:32;;;;;;;11.57;6.90;;;;;;;11.91;100.00;93248.59;2130701;27;20036;-72
2022/08/12 06:00:34;;;;;;;7.85;6.53;;;;;;;11.96;100.00;93248.09;2130559;27;20083;-71
2022/08/12 06:01:36;;;;;;;11.00;6.30;;;;;;;12.02;100.00;93251.00;2130332;27;20025;-71
2022/08/12 06:02:37;;;;;;;8.15;5.93;;;;;;;12.07;100.00;93247.81;2130640;27;20067;-71
2022/08/12 06:03:38;;;;;;;6.82;5.38;;;;;;;12.14;100.00;93246.88;2130583;27;20027;-72
2022/08/12 06:04:39;;;;;;;5.75;4.63;;;;;;;12.18;100.00;93242.94;2130774;27;20150;-71
2022/08/12 06:05:43;;;;;;;12.93;4.70;;;;;;;12.32;100.00;93247.16;2130452;27;20116;-71
2022/08/12 06:06:50;;;;;;;6.03;4.40;;;;;;;12.48;100.00;93249.06;2126699;27;20106;-71
2022/08/12 06:07:54;;;;;;;8.15;5.05;;;;;;;12.63;100.00;93244.06;2126391;27;20041;-72
2022/08/12 06:08:55;;;;;;;9.27;4.90;;;;;;;12.71;100.00;93251.47;2130553;27;20578;-71
2022/08/12 06:09:55;;;;;;;7.63;4.65;;;;;;;12.87;97.74;93252.59;2130560;27;20100;-71
2022/08/12 06:10:56;;;;;;;6.88;4.40;;;;;;;12.94;98.86;93253.13;2130554;27;20079;-71
2022/08/12 06:11:57;;;;;;;8.20;4.63;;;;;;;12.96;98.84;93261.53;2128243;27;20026;-70
2022/08/12 06:13:01;;;;;;;5.70;4.60;;;;;;;13.05;95.88;93258.97;2130685;27;20080;-72
2022/08/12 06:14:02;;;;;;;7.47;4.75;;;;;;;13.26;95.83;93259.56;2130164;27;20030;-71
2022/08/12 06:15:04;;;;;;;5.10;4.60;;;;;;;13.22;97.37;93259.66;2130617;27;20445;-71
2022/08/12 06:16:06;;;;;;;5.35;4.38;;;;;;;13.26;97.49;93256.88;2130478;27;20081;-71
2022/08/12 06:17:08;;;;;;;6.93;4.55;;;;;;;13.31;96.86;93264.38;2129878;27;20030;-73
2022/08/12 06:18:10;;;;;;;8.52;4.63;;;;;;;13.37;96.70;93256.53;2130674;27;20035;-71
2022/08/12 06:19:11;;;;;;;8.93;4.60;;;;;;;13.46;94.40;93267.38;2130502;27;20412;-70
2022/08/12 06:20:14;;;;;;;9.60;5.00;;;;;;;13.63;90.07;93258.03;2120493;28;20038;-70
2022/08/12 06:21:17;;;;;;;5.55;4.15;;;;;;;13.84;85.66;93259.31;2121548;27;20030;-70
2022/08/12 06:22:17;;;;;;;11.18;5.18;;;;;;;13.98;89.18;93256.16;2120888;28;20500;-72
2022/08/12 06:23:18;;;;;;;5.93;4.22;;;;;;;13.98;88.15;93258.09;2121534;27;20106;-70
2022/08/12 06:24:23;;;;;;;5.47;4.07;;;;;;;13.97;90.26;93259.28;2126515;27;20022;-71
2022/08/12 06:25:27;;;;;;;4.88;4.20;;;;;;;13.89;91.04;93258.75;2130425;27;20027;-70
2022/08/12 06:26:28;;;;;;;7.47;4.45;;;;;;;13.92;91.52;93257.91;2130549;27;20368;-73
2022/08/12 06:27:29;;;;;;;7.57;4.10;;;;;;;13.93;92.99;93259.38;2129164;27;20113;-71